createdAt,value
2023-05-16T00:00:53.290Z,88.54
2023-05-16T00:03:20.443Z,87.90
2023-05-16T00:05:48.094Z,88.40
2023-05-16T00:08:14.612Z,88.61
2023-05-16T00:10:41.305Z,88.64
2023-05-16T00:13:07.818Z,88.19
2023-05-16T00:15:34.715Z,88.29
2023-05-16T00:18:01.345Z,87.85
2023-05-16T00:20:29.027Z,87.98
2023-05-16T00:22:55.982Z,87.93
2023-05-16T00:25:23.603Z,88.21
2023-05-16T00:27:50.154Z,88.23
2023-05-16T00:30:16.856Z,87.87
2023-05-16T00:32:43.874Z,87.95
2023-05-16T00:35:11.646Z,87.83
2023-05-16T00:37:38.771Z,88.51
2023-05-16T00:40:05.903Z,88.75
2023-05-16T00:42:32.409Z,88.51
2023-05-16T00:44:59.151Z,88.26
2023-05-16T00:47:25.849Z,88.70
2023-05-16T00:49:52.422Z,88.89
2023-05-16T00:52:18.963Z,88.31
2023-05-16T00:54:45.470Z,88.19
2023-05-16T00:57:12.089Z,88.01
2023-05-16T00:59:38.697Z,88.03
2023-05-16T01:02:05.417Z,88.09
2023-05-16T01:04:32.413Z,88.06
2023-05-16T01:06:58.921Z,87.85
2023-05-16T01:09:25.584Z,87.80
2023-05-16T01:11:59.760Z,87.87
2023-05-16T01:14:56.697Z,87.82
2023-05-16T01:17:57.851Z,87.67
2023-05-16T01:20:48.297Z,87.51
2023-05-16T01:23:17.947Z,87.47
2023-05-16T01:26:06.494Z,87.65
2023-05-16T01:28:33.136Z,87.46
2023-05-16T01:31:00.634Z,87.80
2023-05-16T01:33:27.358Z,87.61
2023-05-16T01:36:01.040Z,87.67
2023-05-16T01:38:31.630Z,87.90
2023-05-16T01:41:21.967Z,87.29
2023-05-16T01:43:49.896Z,87.05
2023-05-16T01:46:21.314Z,87.02
2023-05-16T01:48:53.517Z,86.84
2023-05-16T01:51:25.105Z,86.75
2023-05-16T01:53:52.523Z,87.12
2023-05-16T01:56:19.968Z,86.94
2023-05-16T01:58:48.361Z,86.89
2023-05-16T02:01:14.962Z,86.90
2023-05-16T02:03:41.631Z,86.94
2023-05-16T02:06:08.399Z,86.49
2023-05-16T02:08:35.121Z,86.47
2023-05-16T02:11:01.636Z,86.56
2023-05-16T02:13:28.082Z,86.58
2023-05-16T02:15:54.564Z,87.35
2023-05-16T02:18:23.518Z,86.71
2023-05-16T02:20:50.960Z,86.72
2023-05-16T02:23:17.468Z,87.08
2023-05-16T02:25:43.954Z,87.29
2023-05-16T02:28:10.714Z,86.67
2023-05-16T02:30:37.175Z,86.39
2023-05-16T02:33:03.697Z,86.51
2023-05-16T02:35:30.259Z,85.97
2023-05-16T02:37:57.111Z,85.96
2023-05-16T02:40:23.555Z,85.70
2023-05-16T02:42:50.007Z,85.40
2023-05-16T02:45:16.563Z,85.21
2023-05-16T02:47:43.116Z,85.53
2023-05-16T02:50:09.850Z,85.28
2023-05-16T02:52:36.404Z,85.30
2023-05-16T02:57:32.681Z,85.62
2023-05-16T02:59:59.342Z,85.72
2023-05-16T03:02:26.318Z,85.85
2023-05-16T03:04:52.928Z,86.18
2023-05-16T03:07:19.488Z,86.18
2023-05-16T03:09:46.003Z,85.91
2023-05-16T03:12:12.534Z,86.18
2023-05-16T03:14:39.034Z,86.29
2023-05-16T03:17:05.858Z,85.79
2023-05-16T03:19:32.333Z,85.75
2023-05-16T03:21:58.845Z,86.31
2023-05-16T03:24:25.325Z,86.33
2023-05-16T03:26:52.163Z,86.22
2023-05-16T03:29:18.746Z,86.04
2023-05-16T03:31:45.474Z,85.53
2023-05-16T03:34:12.085Z,85.78
2023-05-16T03:36:39.815Z,86.04
2023-05-16T03:39:06.326Z,85.91
2023-05-16T03:41:33.046Z,86.14
2023-05-16T03:43:59.517Z,85.67
2023-05-16T03:46:26.556Z,85.59
2023-05-16T03:48:53.150Z,85.37
2023-05-16T03:51:19.664Z,85.50
2023-05-16T03:53:46.235Z,85.28
2023-05-16T03:56:12.843Z,85.11
2023-05-16T03:58:39.292Z,85.40
2023-05-16T04:01:06.138Z,85.23
2023-05-16T04:03:33.601Z,85.49
2023-05-16T04:06:00.256Z,85.42
2023-05-16T04:08:26.909Z,84.72
2023-05-16T04:10:53.477Z,84.72
2023-05-16T04:13:20.086Z,85.35
2023-05-16T04:15:46.692Z,85.72
2023-05-16T04:18:13.506Z,85.03
2023-05-16T04:20:40.040Z,84.85
2023-05-16T04:23:06.524Z,84.80
2023-05-16T04:25:33.282Z,84.24
2023-05-16T04:27:59.740Z,84.23
2023-05-16T04:30:26.389Z,83.71
2023-05-16T04:32:52.923Z,83.29
2023-05-16T04:35:19.455Z,83.09
2023-05-16T04:37:45.978Z,82.92
2023-05-16T04:40:13.126Z,82.00
2023-05-16T04:42:39.660Z,81.57
2023-05-16T04:45:06.817Z,80.57
2023-05-16T04:47:33.672Z,80.15
2023-05-16T04:50:00.700Z,79.39
2023-05-16T04:52:27.240Z,79.51
2023-05-16T04:54:53.736Z,78.97
2023-05-16T04:57:20.244Z,78.15
2023-05-16T04:59:46.847Z,79.67
2023-05-16T05:02:13.417Z,78.01
2023-05-16T05:04:40.384Z,78.47
2023-05-16T05:07:07.301Z,77.93
2023-05-16T05:09:33.745Z,78.08
2023-05-16T05:12:00.217Z,78.11
2023-05-16T05:14:26.857Z,78.09
2023-05-16T05:16:53.386Z,77.92
2023-05-16T05:19:20.395Z,77.66
2023-05-16T05:21:46.919Z,76.23
2023-05-16T05:24:13.565Z,76.21
2023-05-16T05:26:40.064Z,75.44
2023-05-16T05:29:06.639Z,75.73
2023-05-16T05:31:36.314Z,75.82
2023-05-16T05:34:03.456Z,75.45
2023-05-16T05:36:30.900Z,75.83
2023-05-16T05:38:57.623Z,75.50
2023-05-16T05:41:24.164Z,75.64
2023-05-16T05:43:51.088Z,75.85
2023-05-16T05:46:17.646Z,76.05
2023-05-16T05:48:44.213Z,76.17
2023-05-16T05:51:11.056Z,76.63
2023-05-16T05:53:37.592Z,77.81
2023-05-16T05:56:04.180Z,78.25
2023-05-16T05:58:30.737Z,78.66
2023-05-16T06:00:57.260Z,77.34
2023-05-16T06:03:23.767Z,77.09
2023-05-16T06:05:50.751Z,75.88
2023-05-16T06:08:17.287Z,77.03
2023-05-16T06:10:43.783Z,76.75
2023-05-16T06:13:10.522Z,76.75
2023-05-16T06:15:37.209Z,76.89
2023-05-16T06:18:03.893Z,77.41
2023-05-16T06:20:30.507Z,77.43
2023-05-16T06:22:57.092Z,77.74
2023-05-16T06:25:23.618Z,78.01
2023-05-16T06:27:50.233Z,78.40
2023-05-16T06:30:16.776Z,77.42
2023-05-16T06:32:43.746Z,77.83
2023-05-16T06:35:10.531Z,77.29
2023-05-16T06:37:37.086Z,77.07
2023-05-16T06:40:03.796Z,76.95
2023-05-16T06:42:30.494Z,76.56
2023-05-16T06:44:56.994Z,77.48
2023-05-16T06:47:23.500Z,78.08
2023-05-16T06:49:50.910Z,76.97
2023-05-16T06:52:17.599Z,75.70
2023-05-16T06:54:44.218Z,76.53
2023-05-16T06:57:10.944Z,75.86
2023-05-16T06:59:37.428Z,76.03
2023-05-16T07:02:04.084Z,75.73
2023-05-16T07:04:30.614Z,76.02
2023-05-16T07:06:57.347Z,76.17
2023-05-16T07:09:23.880Z,76.09
2023-05-16T07:11:50.493Z,76.36
2023-05-16T07:14:17.029Z,76.54
2023-05-16T07:16:44.149Z,76.45
2023-05-16T07:19:10.812Z,75.93
2023-05-16T07:21:37.328Z,75.01
2023-05-16T07:24:04.159Z,74.24
2023-05-16T07:26:30.688Z,69.14
2023-05-16T07:28:58.101Z,64.72
2023-05-16T07:31:24.731Z,60.44
2023-05-16T07:33:51.467Z,60.15
2023-05-16T07:36:18.117Z,59.96
2023-05-16T07:38:45.120Z,62.07
2023-05-16T07:41:11.946Z,64.51
2023-05-16T07:43:38.522Z,63.74
2023-05-16T07:46:05.274Z,64.56
2023-05-16T07:48:31.903Z,67.67
2023-05-16T07:50:58.396Z,68.92
2023-05-16T07:53:24.942Z,69.25
2023-05-16T07:55:51.663Z,69.82
2023-05-16T07:58:18.253Z,70.10
2023-05-16T08:00:44.778Z,70.17
2023-05-16T08:03:11.481Z,70.66
2023-05-16T08:05:38.210Z,70.63
2023-05-16T08:08:04.867Z,71.26
2023-05-16T08:10:31.436Z,70.34
2023-05-16T08:12:57.968Z,70.82
2023-05-16T08:15:26.038Z,70.91
2023-05-16T08:17:54.843Z,71.41
2023-05-16T08:20:21.431Z,71.14
2023-05-16T08:22:48.098Z,70.60
2023-05-16T08:25:14.768Z,70.76
2023-05-16T08:27:41.405Z,70.82
2023-05-16T08:30:09.741Z,70.12
2023-05-16T08:32:37.338Z,69.48
2023-05-16T08:35:04.063Z,69.47
2023-05-16T08:37:30.743Z,70.00
2023-05-16T08:39:58.474Z,68.73
2023-05-16T08:42:25.034Z,65.53
2023-05-16T08:44:51.656Z,65.40
2023-05-16T08:47:19.347Z,64.88
2023-05-16T08:49:48.197Z,64.31
2023-05-16T08:52:19.043Z,64.24
2023-05-16T08:54:50.304Z,64.13
2023-05-16T08:57:22.050Z,64.80
2023-05-16T08:59:48.876Z,64.61
2023-05-16T09:02:15.717Z,64.78
2023-05-16T09:04:43.331Z,65.11
2023-05-16T09:07:09.949Z,66.08
2023-05-16T09:09:36.444Z,66.06
2023-05-16T09:12:03.149Z,66.43
2023-05-16T09:14:29.717Z,65.18
2023-05-16T09:17:06.786Z,62.28
2023-05-16T09:19:40.967Z,63.85
2023-05-16T09:22:10.617Z,64.14
2023-05-16T09:24:44.333Z,63.02
2023-05-16T09:27:12.646Z,62.14
2023-05-16T09:29:42.833Z,60.59
2023-05-16T09:32:14.440Z,61.34
2023-05-16T09:34:49.292Z,62.42
2023-05-16T09:37:16.383Z,63.11
2023-05-16T09:39:47.912Z,61.71
2023-05-16T09:42:15.746Z,64.08
2023-05-16T09:44:47.468Z,62.99
2023-05-16T09:47:16.578Z,63.84
2023-05-16T09:49:45.049Z,64.46
2023-05-16T09:52:12.033Z,64.40
2023-05-16T09:54:38.691Z,64.65
2023-05-16T09:57:05.369Z,62.98
2023-05-16T09:59:36.998Z,62.99
2023-05-16T10:02:05.495Z,63.34
2023-05-16T10:04:32.075Z,62.91
2023-05-16T10:06:59.336Z,63.81
2023-05-16T10:09:26.033Z,63.86
2023-05-16T10:11:53.674Z,64.73
2023-05-16T10:14:20.810Z,64.59
2023-05-16T10:16:51.144Z,64.63
2023-05-16T10:19:20.740Z,64.54
2023-05-16T10:21:52.678Z,62.64
2023-05-16T10:24:29.160Z,63.67
2023-05-16T10:26:55.758Z,63.28
2023-05-16T10:29:22.718Z,63.49
2023-05-16T10:31:49.318Z,63.31
2023-05-16T10:34:16.868Z,63.49
2023-05-16T10:36:44.656Z,62.52
2023-05-16T10:39:12.130Z,61.03
2023-05-16T10:41:39.063Z,61.41
2023-05-16T10:44:13.550Z,61.50
2023-05-16T10:46:40.236Z,61.21
2023-05-16T10:49:24.350Z,59.51
2023-05-16T10:52:13.364Z,59.32
2023-05-16T10:54:42.672Z,58.56
2023-05-16T10:57:17.706Z,58.70
2023-05-16T10:59:45.961Z,59.76
2023-05-16T11:02:24.698Z,60.07
2023-05-16T11:04:59.582Z,57.48
2023-05-16T11:07:31.046Z,59.01
2023-05-16T11:10:08.624Z,60.38
2023-05-16T11:12:46.037Z,61.10
2023-05-16T11:15:29.356Z,60.95
2023-05-16T11:18:09.329Z,61.53
2023-05-16T11:20:39.940Z,61.99
2023-05-16T11:23:22.414Z,60.87
2023-05-16T11:25:52.694Z,61.86
2023-05-16T11:28:20.099Z,62.70
2023-05-16T11:30:52.617Z,59.71
2023-05-16T11:33:19.629Z,59.46
2023-05-16T11:38:37.088Z,59.10
2023-05-16T11:41:07.997Z,59.82
2023-05-16T11:43:45.133Z,59.40
2023-05-16T11:46:16.237Z,58.92
2023-05-16T11:48:43.763Z,57.08
2023-05-16T11:51:10.826Z,58.37
2023-05-16T11:53:38.424Z,57.25
2023-05-16T11:56:07.238Z,56.67
2023-05-16T11:58:33.895Z,57.57
2023-05-16T12:01:00.430Z,57.42
2023-05-16T12:03:27.125Z,57.14
2023-05-16T12:05:55.386Z,54.55
2023-05-16T12:08:22.658Z,56.84
2023-05-16T12:10:50.521Z,54.91
2023-05-16T12:13:20.023Z,54.66
2023-05-16T12:15:47.899Z,53.98
2023-05-16T12:18:15.166Z,54.91
2023-05-16T12:20:43.092Z,56.40
2023-05-16T12:23:13.104Z,58.23
2023-05-16T12:25:46.310Z,57.98
2023-05-16T12:28:13.927Z,58.64
2023-05-16T12:30:42.912Z,57.56
2023-05-16T12:33:11.773Z,59.82
2023-05-16T12:35:39.929Z,59.34
2023-05-16T12:38:10.985Z,58.65
2023-05-16T12:40:39.579Z,57.61
2023-05-16T12:43:16.980Z,57.70
2023-05-16T12:45:52.898Z,57.09
2023-05-16T12:48:19.836Z,56.79
2023-05-16T12:50:46.664Z,57.31
2023-05-16T12:53:14.141Z,56.93
2023-05-16T12:55:41.347Z,57.80
2023-05-16T12:58:08.865Z,56.88
2023-05-16T13:00:36.634Z,57.66
2023-05-16T13:03:04.125Z,58.55
2023-05-16T13:05:30.824Z,58.60
2023-05-16T13:07:57.386Z,57.97
2023-05-16T13:10:26.040Z,57.45
2023-05-16T13:12:53.776Z,57.38
2023-05-16T13:15:20.383Z,55.45
2023-05-16T13:17:48.552Z,54.55
2023-05-16T13:20:15.582Z,53.39
2023-05-16T13:22:43.865Z,53.48
2023-05-16T13:25:11.035Z,53.47
2023-05-16T13:27:37.791Z,54.62
2023-05-16T13:30:04.936Z,54.28
2023-05-16T13:32:31.578Z,54.89
2023-05-16T13:34:58.143Z,53.82
2023-05-16T13:37:24.740Z,53.08
2023-05-16T13:39:52.659Z,53.12
2023-05-16T13:42:19.208Z,54.18
2023-05-16T13:44:45.881Z,54.42
2023-05-16T13:47:12.625Z,50.09
2023-05-16T13:49:39.670Z,48.97
2023-05-16T13:52:06.714Z,49.98
2023-05-16T13:54:33.666Z,49.55
2023-05-16T13:57:00.755Z,49.09
2023-05-16T13:59:44.700Z,48.21
2023-05-16T14:02:15.122Z,49.00
2023-05-16T14:04:41.732Z,48.52
2023-05-16T14:07:08.264Z,50.07
2023-05-16T14:09:35.283Z,50.07
2023-05-16T14:12:05.086Z,51.82
2023-05-16T14:14:31.970Z,51.10
2023-05-16T14:16:59.430Z,50.73
2023-05-16T14:19:28.780Z,51.01
2023-05-16T14:21:55.738Z,50.21
2023-05-16T14:24:22.714Z,50.12
2023-05-16T14:26:49.290Z,49.34
2023-05-16T14:29:15.825Z,49.86
2023-05-16T14:31:42.972Z,49.29
2023-05-16T14:34:09.941Z,50.33
2023-05-16T14:36:37.152Z,49.48
2023-05-16T14:39:04.058Z,49.53
2023-05-16T14:41:30.626Z,50.02
2023-05-16T14:43:57.185Z,47.40
2023-05-16T14:46:23.773Z,47.45
2023-05-16T14:48:51.105Z,48.00
2023-05-16T14:51:17.898Z,47.57
2023-05-16T14:53:46.784Z,47.84
2023-05-16T14:56:13.753Z,48.71
2023-05-16T14:58:40.686Z,48.88
2023-05-16T15:01:07.332Z,50.05
2023-05-16T15:03:46.747Z,48.05
2023-05-16T15:06:13.879Z,48.60
2023-05-16T15:08:40.659Z,48.89
2023-05-16T15:11:07.417Z,48.57
2023-05-16T15:13:34.094Z,48.58
2023-05-16T15:16:00.837Z,49.14
2023-05-16T15:18:27.391Z,48.41
2023-05-16T15:20:54.180Z,48.11
2023-05-16T15:23:20.876Z,47.70
2023-05-16T15:25:47.384Z,48.11
2023-05-16T15:28:13.861Z,48.37
2023-05-16T15:30:40.434Z,49.57
2023-05-16T15:33:07.017Z,50.23
2023-05-16T15:35:33.692Z,49.04
2023-05-16T15:38:00.233Z,49.42
2023-05-16T15:40:27.426Z,49.79
2023-05-16T15:42:54.069Z,49.55
2023-05-16T15:45:21.019Z,50.01
2023-05-16T15:47:47.717Z,49.84
2023-05-16T15:50:14.352Z,49.65
2023-05-16T15:52:41.087Z,49.18
2023-05-16T15:55:07.948Z,49.43
2023-05-16T15:57:34.809Z,48.31
2023-05-16T16:00:01.388Z,48.26
2023-05-16T16:02:27.994Z,49.36
2023-05-16T16:04:54.677Z,50.12
2023-05-16T16:07:21.272Z,52.06
2023-05-16T16:09:47.759Z,51.77
2023-05-16T16:12:14.292Z,51.21
2023-05-16T16:14:41.267Z,50.49
2023-05-16T16:17:07.788Z,50.36
2023-05-16T16:19:34.293Z,51.54
2023-05-16T16:22:00.802Z,51.84
2023-05-16T16:24:27.348Z,52.67
2023-05-16T16:26:53.874Z,52.48
2023-05-16T16:29:20.591Z,52.30
2023-05-16T16:31:47.336Z,53.36
2023-05-16T16:34:14.084Z,53.07
2023-05-16T16:36:40.961Z,52.70
2023-05-16T16:39:07.488Z,52.79
2023-05-16T16:41:34.013Z,52.18
2023-05-16T16:44:00.557Z,51.90
2023-05-16T16:46:27.396Z,51.73
2023-05-16T16:48:54.750Z,53.09
2023-05-16T16:51:21.498Z,53.79
2023-05-16T16:53:48.035Z,53.46
2023-05-16T16:56:14.556Z,52.15
2023-05-16T16:58:41.685Z,52.70
2023-05-16T17:01:08.235Z,52.90
2023-05-16T17:03:35.074Z,53.06
2023-05-16T17:06:01.670Z,52.83
2023-05-16T17:08:28.230Z,52.84
2023-05-16T17:10:54.801Z,53.12
2023-05-16T17:13:21.701Z,53.37
2023-05-16T17:15:48.181Z,53.37
2023-05-16T17:18:14.940Z,53.32
2023-05-16T17:20:41.505Z,53.73
2023-05-16T17:23:07.991Z,53.70
2023-05-16T17:25:34.613Z,53.81
2023-05-16T17:28:01.160Z,54.67
2023-05-16T17:30:27.631Z,54.52
2023-05-16T17:32:54.232Z,55.28
2023-05-16T17:35:20.851Z,54.73
2023-05-16T17:37:47.806Z,54.55
2023-05-16T17:40:17.142Z,54.06
2023-05-16T17:42:44.861Z,53.95
2023-05-16T17:45:12.977Z,54.40
2023-05-16T17:47:40.048Z,54.26
2023-05-16T17:50:09.548Z,54.56
2023-05-16T17:52:37.942Z,55.04
2023-05-16T17:55:05.813Z,55.09
2023-05-16T17:57:33.940Z,54.71
2023-05-16T18:00:00.807Z,55.08
2023-05-16T18:02:27.393Z,55.22
2023-05-16T18:04:53.966Z,55.27
2023-05-16T18:07:20.568Z,55.47
2023-05-16T18:09:47.111Z,55.67
2023-05-16T18:12:13.717Z,55.63
2023-05-16T18:14:40.750Z,56.22
2023-05-16T18:17:09.043Z,55.97
2023-05-16T18:19:36.006Z,55.87
2023-05-16T18:22:06.949Z,56.12
2023-05-16T18:24:34.555Z,56.27
2023-05-16T18:27:01.929Z,56.69
2023-05-16T18:29:28.457Z,57.04
2023-05-16T18:31:55.327Z,57.41
2023-05-16T18:34:21.846Z,58.29
2023-05-16T18:36:48.949Z,58.49
2023-05-16T18:39:15.626Z,58.88
2023-05-16T18:41:46.512Z,59.01
2023-05-16T18:44:13.342Z,59.22
2023-05-16T18:46:39.851Z,59.46
2023-05-16T18:49:06.427Z,59.63
2023-05-16T18:51:35.468Z,59.87
2023-05-16T18:54:04.993Z,60.58
2023-05-16T18:56:32.058Z,60.95
2023-05-16T18:58:58.631Z,61.22
2023-05-16T19:01:25.454Z,61.18
2023-05-16T19:03:52.144Z,61.65
2023-05-16T19:06:18.762Z,61.75
2023-05-16T19:08:47.999Z,61.85
2023-05-16T19:11:15.571Z,61.65
2023-05-16T19:13:42.170Z,61.02
2023-05-16T19:16:08.985Z,61.44
2023-05-16T19:18:35.862Z,61.29
2023-05-16T19:21:03.479Z,61.49
2023-05-16T19:23:30.600Z,61.51
2023-05-16T19:25:57.090Z,61.94
2023-05-16T19:28:24.723Z,62.07
2023-05-16T19:30:51.415Z,62.77
2023-05-16T19:33:18.329Z,63.18
2023-05-16T19:35:45.763Z,63.30
2023-05-16T19:38:12.388Z,63.35
2023-05-16T19:40:38.946Z,63.75
2023-05-16T19:43:05.746Z,63.79
2023-05-16T19:45:32.444Z,64.16
2023-05-16T19:47:59.096Z,64.04
2023-05-16T19:50:26.303Z,64.47
2023-05-16T19:52:53.076Z,64.80
2023-05-16T19:55:19.695Z,64.99
2023-05-16T19:57:46.715Z,65.16
2023-05-16T20:00:14.185Z,65.63
2023-05-16T20:02:42.950Z,66.13
2023-05-16T20:05:09.912Z,66.39
2023-05-16T20:07:36.607Z,66.71
2023-05-16T20:10:03.210Z,66.98
2023-05-16T20:12:29.685Z,67.04
2023-05-16T20:14:56.190Z,67.19
2023-05-16T20:17:22.711Z,67.66
2023-05-16T20:19:49.241Z,68.15
2023-05-16T20:22:15.885Z,68.19
2023-05-16T20:24:42.577Z,68.79
2023-05-16T20:27:09.081Z,69.12
2023-05-16T20:29:35.984Z,68.91
2023-05-16T20:32:03.972Z,68.80
2023-05-16T20:34:31.759Z,68.47
2023-05-16T20:36:58.514Z,69.08
2023-05-16T20:39:28.904Z,68.95
2023-05-16T20:41:55.559Z,69.08
2023-05-16T20:44:22.074Z,69.17
2023-05-16T20:46:48.603Z,69.23
2023-05-16T20:49:15.118Z,69.23
2023-05-16T20:51:42.564Z,69.26
2023-05-16T20:54:09.099Z,69.51
2023-05-16T20:56:35.754Z,69.67
2023-05-16T20:59:02.266Z,70.05
2023-05-16T21:01:29.326Z,70.29
2023-05-16T21:03:55.949Z,71.02
2023-05-16T21:06:22.706Z,71.13
2023-05-16T21:08:49.326Z,70.90
2023-05-16T21:11:15.828Z,70.94
2023-05-16T21:13:42.527Z,70.85
2023-05-16T21:16:09.175Z,71.09
2023-05-16T21:18:35.769Z,71.34
2023-05-16T21:21:02.394Z,71.30
2023-05-16T21:23:28.878Z,71.96
2023-05-16T21:25:55.431Z,71.83
2023-05-16T21:28:21.997Z,71.95
2023-05-16T21:30:48.636Z,72.08
2023-05-16T21:33:15.214Z,72.00
2023-05-16T21:35:41.791Z,71.85
2023-05-16T21:38:08.314Z,71.76
2023-05-16T21:40:34.823Z,71.75
2023-05-16T21:43:01.289Z,71.73
2023-05-16T21:45:28.174Z,72.16
2023-05-16T21:47:54.883Z,72.18
2023-05-16T21:50:21.680Z,72.27
2023-05-16T21:52:48.217Z,72.25
2023-05-16T21:55:15.300Z,72.34
2023-05-16T21:57:41.900Z,72.26
2023-05-16T22:00:09.818Z,72.77
2023-05-16T22:02:37.029Z,72.88
2023-05-16T22:05:04.306Z,73.90
2023-05-16T22:07:31.612Z,74.28
2023-05-16T22:09:59.310Z,74.16
2023-05-16T22:12:26.935Z,74.37
2023-05-16T22:14:53.700Z,74.55
2023-05-16T22:17:20.500Z,74.53
2023-05-16T22:19:47.088Z,73.40
2023-05-16T22:22:13.674Z,73.44
2023-05-16T22:24:40.350Z,73.28
2023-05-16T22:27:06.951Z,73.42
2023-05-16T22:29:38.248Z,73.54
2023-05-16T22:32:08.936Z,74.27
2023-05-16T22:34:36.358Z,74.27
2023-05-16T22:37:02.876Z,74.61
2023-05-16T22:39:29.416Z,75.16
2023-05-16T22:41:55.943Z,74.65
2023-05-16T22:44:22.486Z,74.72
2023-05-16T22:46:49.103Z,75.04
2023-05-16T22:49:16.290Z,74.85
2023-05-16T22:51:42.883Z,74.89
2023-05-16T22:54:09.567Z,75.01
2023-05-16T22:56:36.207Z,75.31
2023-05-16T22:59:02.685Z,74.90
2023-05-16T23:01:29.303Z,75.99
2023-05-16T23:03:56.009Z,75.85
2023-05-16T23:06:22.627Z,76.18
2023-05-16T23:08:49.162Z,76.68
2023-05-16T23:11:15.714Z,76.82
2023-05-16T23:13:42.257Z,77.44
2023-05-16T23:16:08.868Z,78.07
2023-05-16T23:18:35.753Z,78.20
2023-05-16T23:21:02.446Z,78.83
2023-05-16T23:23:29.120Z,79.36
2023-05-16T23:25:55.733Z,79.98
2023-05-16T23:28:22.558Z,80.46
2023-05-16T23:30:49.088Z,80.72
2023-05-16T23:33:15.703Z,81.30
2023-05-16T23:35:42.396Z,81.40
2023-05-16T23:38:09.070Z,81.30
2023-05-16T23:40:35.549Z,81.69
2023-05-16T23:43:02.039Z,81.85
2023-05-16T23:45:30.287Z,81.32
2023-05-16T23:47:56.999Z,82.56
2023-05-16T23:50:23.799Z,83.50
2023-05-16T23:52:50.408Z,84.00
2023-05-16T23:55:16.914Z,83.49
2023-05-16T23:57:43.592Z,83.26
